Startpagina
METAR-TAF:

METAR-TAF

Vliegvelden :

Aeropuerto Internacional Jorge Wilstermann

Cochabamba, Bolivia

breedte: 17-25S, lengte: 066-11W, hoogte: 2548 m

Actueel weer

Dit bericht is 59 minuten geleden gemaakt, om 16:00 UTC
Wind 3 kt uit het zuidoosten
Temperatuur 22°C
Vochtigheid 21%
Druk 1025 hPa
Zicht 10 km of meer
Weinig wolken op 3300 ft

METAR: SLCB 261600Z 14003KT 9999 FEW033 22/M01 Q1025

Tijdstip: 12:59 (16:59 UTC)

Verwachting

Dit bericht is 6 uur en het 59 minuten geleden gemaakt, om 10:00 UTC
Verwachting geldig van 26 om 12 UTC tot 27 om 12 UTC
Wind kt uit het noorden
Zicht 10 km of meer
Wijzigt naar
van 26 om 16 UTC tot 26 om 18 UTC
Wind 10 kt uit het westen
Weinig wolken op 3600 ft
Wijzigt naar
van 27 om 02 UTC tot 27 om 04 UTC
Wind kt uit het noorden
Verspreide wolken op 2700 ft

TAF: SLCB 261000Z 2612/2712 00000KT 9999 NSC TX27/2619Z TN06/2711Z BECMG 2616/2618 27010KT FEW036 BECMG 2702/2704 00000KT SCT027

Waarnemingen en weersverwachtingen van meer dan 4000 vliegvelden (METAR en TAF).

De beschikbare stations zijn de gele en rode punten op de kaart.

Ga met uw muis naar het station om de naam te zien.

Klik dan om waarnemingen en weersverwachtingen te zien.

kaart wijzigen: klik op de groene knoppen met een zwart kruis om in te zoomen, op de groene knop met een streepje om uit te zoomen of op de groene pijlen voor aangrenzende kaarten.


METAR-TAF: